Time;durP1;ratioP1;P1;durP2;ratioP2;P2;SDS_P1;SDS_P2;PMS_P1;PMS_P2;Temp;Humidity;BMP_temperature;BMP_pressure;BME280_temperature;BME280_humidity;BME280_pressure;Samples;Min_cycle;Max_cycle;Signal;HPM_P1;HPM_P2
2023/11/27 00:00:34;;;;;;;5.68;3.00;;;1.50;83.00;;;;;;5134980;27;20188;-93
2023/11/27 00:03:01;;;;;;;5.07;2.85;;;1.50;83.00;;;;;;5134680;27;20219;-91
2023/11/27 00:05:28;;;;;;;3.95;2.40;;;1.50;82.90;;;;;;5134449;27;20231;-92
2023/11/27 00:07:55;;;;;;;4.85;2.85;;;1.50;82.80;;;;;;5135047;27;20231;-93
2023/11/27 00:10:23;;;;;;;5.70;2.63;;;1.50;82.90;;;;;;5134619;27;20233;-92
2023/11/27 00:12:50;;;;;;;5.07;2.45;;;1.60;83.00;;;;;;5134559;28;20254;-92
2023/11/27 00:15:17;;;;;;;5.30;3.00;;;1.60;82.20;;;;;;5134816;28;20237;-91
2023/11/27 00:17:44;;;;;;;6.55;3.50;;;1.60;82.00;;;;;;5134566;27;20230;-92
2023/11/27 00:20:12;;;;;;;4.85;3.00;;;1.60;82.60;;;;;;5134729;28;20184;-93
2023/11/27 00:22:39;;;;;;;4.63;3.08;;;1.60;82.20;;;;;;5134844;27;20192;-93
2023/11/27 00:25:07;;;;;;;4.57;2.70;;;1.60;82.40;;;;;;5134979;28;20577;-93
2023/11/27 00:27:35;;;;;;;3.58;2.28;;;1.60;81.60;;;;;;5133964;27;20191;-94
2023/11/27 00:30:05;;;;;;;4.05;2.60;;;1.60;81.50;;;;;;5134785;28;20216;-92
2023/11/27 00:32:33;;;;;;;4.30;2.53;;;1.60;81.50;;;;;;5134474;28;20223;-92
2023/11/27 00:35:00;;;;;;;4.50;2.70;;;1.60;81.40;;;;;;5134336;28;20225;-90
2023/11/27 00:37:27;;;;;;;4.32;2.20;;;1.50;81.20;;;;;;5114037;28;20608;-92
2023/11/27 00:39:54;;;;;;;5.25;2.92;;;1.60;81.20;;;;;;5113796;28;20214;-91
2023/11/27 00:42:22;;;;;;;4.53;2.90;;;1.60;81.10;;;;;;5113687;28;20643;-92
2023/11/27 00:44:50;;;;;;;5.40;3.20;;;1.50;81.00;;;;;;5114076;28;20557;-93
2023/11/27 00:47:18;;;;;;;5.82;2.75;;;1.50;81.50;;;;;;5113827;28;20248;-91
2023/11/27 00:49:45;;;;;;;7.97;3.22;;;1.50;81.60;;;;;;5113752;28;20189;-89
2023/11/27 00:52:12;;;;;;;5.15;2.80;;;1.50;82.00;;;;;;5114176;28;20297;-91
2023/11/27 00:54:39;;;;;;;5.13;3.05;;;1.50;82.30;;;;;;5133331;28;20191;-91
2023/11/27 00:57:07;;;;;;;4.30;2.97;;;1.60;82.60;;;;;;5134253;28;20221;-91
2023/11/27 00:59:42;;;;;;;6.60;3.35;;;1.60;82.50;;;;;;5134449;28;20219;-92
2023/11/27 01:02:11;;;;;;;6.53;3.15;;;1.70;81.60;;;;;;5134718;28;20260;-92
2023/11/27 01:04:39;;;;;;;5.05;3.42;;;1.70;81.00;;;;;;5133985;28;20226;-92
2023/11/27 01:07:06;;;;;;;6.05;3.33;;;1.70;80.80;;;;;;5134273;28;20261;-92
2023/11/27 01:09:34;;;;;;;5.30;2.90;;;1.60;80.50;;;;;;5134350;28;20253;-92
2023/11/27 01:12:01;;;;;;;5.80;3.80;;;1.60;80.40;;;;;;5133957;28;20184;-92
2023/11/27 01:14:28;;;;;;;6.65;4.82;;;1.60;80.40;;;;;;5134232;28;20196;-93
2023/11/27 01:16:56;;;;;;;6.32;2.90;;;1.60;80.40;;;;;;5133873;27;20590;-91
2023/11/27 01:19:24;;;;;;;4.30;2.75;;;1.60;80.40;;;;;;5136930;27;20641;-90
2023/11/27 01:21:52;;;;;;;4.30;2.83;;;1.60;79.90;;;;;;5137813;27;20607;-91
2023/11/27 01:24:20;;;;;;;6.15;3.22;;;1.50;80.20;;;;;;5137927;27;20198;-93
2023/11/27 01:26:47;;;;;;;6.05;4.25;;;1.50;80.30;;;;;;5137093;27;20275;-90
2023/11/27 01:29:14;;;;;;;7.15;3.88;;;1.40;80.90;;;;;;5137695;27;20270;-91
2023/11/27 01:31:41;;;;;;;6.78;3.50;;;1.30;81.20;;;;;;5137768;27;20191;-90
2023/11/27 01:34:08;;;;;;;5.63;3.55;;;1.30;82.20;;;;;;5137590;27;20254;-92
2023/11/27 01:36:36;;;;;;;4.20;3.03;;;1.30;82.30;;;;;;5137315;27;20184;-92
2023/11/27 01:39:03;;;;;;;6.70;3.58;;;1.30;82.80;;;;;;5137242;27;20283;-91
2023/11/27 01:41:30;;;;;;;5.03;2.95;;;1.30;83.00;;;;;;5136871;27;20184;-91
2023/11/27 01:43:57;;;;;;;4.40;2.83;;;1.30;82.80;;;;;;5137134;27;20230;-91
2023/11/27 01:46:26;;;;;;;5.43;3.65;;;1.20;83.00;;;;;;5137406;27;20316;-91
2023/11/27 01:48:54;;;;;;;3.95;2.85;;;1.20;83.10;;;;;;5137029;27;20195;-91
2023/11/27 01:51:22;;;;;;;4.35;2.63;;;1.30;83.10;;;;;;5136935;27;20252;-92
2023/11/27 01:53:51;;;;;;;4.60;3.20;;;1.20;83.10;;;;;;5136999;27;20248;-92
2023/11/27 01:56:21;;;;;;;5.70;3.45;;;1.20;83.60;;;;;;5136803;27;20181;-91
2023/11/27 01:58:50;;;;;;;3.22;2.00;;;1.20;83.50;;;;;;5137447;27;20192;-91
2023/11/27 02:01:17;;;;;;;5.60;2.60;;;1.30;83.60;;;;;;5137436;27;20188;-91
2023/11/27 02:03:44;;;;;;;6.20;3.05;;;1.30;83.20;;;;;;5136972;27;20234;-93
2023/11/27 02:06:12;;;;;;;6.85;2.58;;;1.30;82.40;;;;;;5136694;27;20188;-91
2023/11/27 02:08:44;;;;;;;5.40;2.67;;;1.30;82.10;;;;;;5137132;27;20220;-91
2023/11/27 02:11:18;;;;;;;8.07;3.22;;;1.30;81.70;;;;;;5137019;27;20180;-93
2023/11/27 02:13:45;;;;;;;4.72;3.05;;;1.20;80.30;;;;;;5136807;27;20240;-91
2023/11/27 02:16:12;;;;;;;6.75;3.20;;;1.20;81.00;;;;;;5136411;27;20245;-92
2023/11/27 02:18:40;;;;;;;4.50;3.08;;;1.10;81.60;;;;;;5136686;27;20241;-91
2023/11/27 02:21:08;;;;;;;5.90;3.13;;;1.10;82.20;;;;;;5136481;27;20231;-91
2023/11/27 02:23:37;;;;;;;5.97;2.65;;;1.20;81.90;;;;;;5132661;27;20188;-91
2023/11/27 02:26:04;;;;;;;10.68;3.60;;;1.20;82.30;;;;;;5135926;27;20278;-91
2023/11/27 02:28:31;;;;;;;4.85;2.80;;;1.20;82.40;;;;;;5135658;27;20649;-91
2023/11/27 02:30:58;;;;;;;5.68;3.53;;;1.20;82.00;;;;;;5136164;27;20188;-90
2023/11/27 02:33:26;;;;;;;4.05;2.45;;;1.30;82.20;;;;;;5135002;27;20243;-92
2023/11/27 02:35:53;;;;;;;5.85;2.47;;;1.40;81.80;;;;;;5135303;27;20275;-91
2023/11/27 02:38:20;;;;;;;6.80;2.33;;;1.40;81.40;;;;;;5135814;27;20269;-91
2023/11/27 02:40:48;;;;;;;4.55;2.45;;;1.40;81.10;;;;;;5135896;27;20226;-91
2023/11/27 02:43:15;;;;;;;4.43;2.80;;;1.30;80.00;;;;;;5135849;27;20239;-92
2023/11/27 02:45:42;;;;;;;3.88;2.40;;;1.40;80.70;;;;;;5121650;27;20228;-91
2023/11/27 02:48:10;;;;;;;4.30;2.10;;;1.40;80.70;;;;;;5124359;27;20275;-90
2023/11/27 02:50:38;;;;;;;2.65;1.40;;;1.50;80.10;;;;;;5135971;27;20189;-92
2023/11/27 02:53:05;;;;;;;3.20;2.25;;;1.40;78.50;;;;;;5135162;27;20211;-91
2023/11/27 02:55:32;;;;;;;2.88;1.73;;;1.40;79.40;;;;;;5135494;27;20241;-91
2023/11/27 02:58:01;;;;;;;3.50;1.90;;;1.40;79.70;;;;;;5135321;27;20192;-92
2023/11/27 03:00:28;;;;;;;3.72;2.20;;;1.40;80.40;;;;;;5135158;27;20184;-91
2023/11/27 03:02:55;;;;;;;2.88;1.80;;;1.40;79.00;;;;;;5135659;27;20235;-90
2023/11/27 03:05:22;;;;;;;3.45;1.85;;;1.40;79.00;;;;;;5135830;27;20248;-91
2023/11/27 03:07:49;;;;;;;3.88;2.20;;;1.40;79.80;;;;;;5135214;27;20188;-92
2023/11/27 03:10:17;;;;;;;2.90;1.70;;;1.50;79.80;;;;;;5134556;27;20219;-91
2023/11/27 03:12:46;;;;;;;3.10;2.10;;;1.50;79.20;;;;;;5134095;27;20275;-90
2023/11/27 03:15:15;;;;;;;3.13;1.50;;;1.50;79.50;;;;;;5134899;27;20205;-91
2023/11/27 03:17:42;;;;;;;2.30;1.30;;;1.50;79.60;;;;;;5135065;27;20189;-93
2023/11/27 03:20:12;;;;;;;3.38;1.77;;;1.60;79.50;;;;;;5134929;27;20703;-92
2023/11/27 03:22:39;;;;;;;4.47;2.00;;;1.60;79.70;;;;;;5135160;27;20233;-93
2023/11/27 03:25:06;;;;;;;3.53;1.90;;;1.60;78.60;;;;;;5135097;27;20187;-91
2023/11/27 03:27:33;;;;;;;5.30;1.92;;;1.60;79.00;;;;;;5135204;27;20233;-92
2023/11/27 03:30:00;;;;;;;2.70;1.50;;;1.70;79.40;;;;;;5134735;27;20215;-91
2023/11/27 03:32:29;;;;;;;7.55;2.38;;;1.70;79.70;;;;;;5134347;27;20191;-91
2023/11/27 03:34:56;;;;;;;4.13;1.80;;;1.70;79.00;;;;;;5134684;27;20212;-91
2023/11/27 03:37:23;;;;;;;3.17;1.50;;;1.70;79.70;;;;;;5134148;27;20211;-92
2023/11/27 03:39:50;;;;;;;5.20;1.60;;;1.70;79.30;;;;;;5134283;27;20237;-91
2023/11/27 03:42:17;;;;;;;2.33;1.33;;;1.70;78.80;;;;;;5134224;27;20223;-93
2023/11/27 03:44:44;;;;;;;2.70;1.38;;;1.80;78.60;;;;;;5135631;27;20196;-92
2023/11/27 03:47:11;;;;;;;2.97;1.80;;;1.70;77.90;;;;;;5136868;27;20287;-92
2023/11/27 03:49:39;;;;;;;2.60;1.50;;;1.60;78.20;;;;;;5135314;27;20587;-92
2023/11/27 03:52:07;;;;;;;2.85;1.60;;;1.60;78.10;;;;;;5135068;27;20273;-93
2023/11/27 03:54:34;;;;;;;3.70;2.38;;;1.60;79.50;;;;;;5135263;27;20208;-92
2023/11/27 03:57:01;;;;;;;3.40;1.40;;;1.60;78.90;;;;;;5135216;27;20218;-94
2023/11/27 03:59:28;;;;;;;5.90;2.20;;;1.60;79.10;;;;;;5135121;27;20241;-93
2023/11/27 04:01:55;;;;;;;3.45;1.85;;;1.60;79.70;;;;;;5135206;27;20236;-92
2023/11/27 04:04:22;;;;;;;2.92;1.35;;;1.60;79.90;;;;;;5135319;28;20196;-93
2023/11/27 04:06:50;;;;;;;2.92;1.45;;;1.60;80.10;;;;;;5135009;27;20248;-91
2023/11/27 04:09:20;;;;;;;2.72;1.23;;;1.60;80.30;;;;;;5134687;28;20211;-93
2023/11/27 04:11:48;;;;;;;2.95;1.40;;;1.70;80.50;;;;;;5134718;28;20215;-92
2023/11/27 04:14:15;;;;;;;3.35;1.77;;;1.70;80.30;;;;;;5134889;28;20208;-93
2023/11/27 04:16:43;;;;;;;3.60;1.58;;;1.70;79.60;;;;;;5135024;27;20191;-92
2023/11/27 04:19:10;;;;;;;3.67;1.83;;;1.70;79.30;;;;;;5135163;28;20188;-92
2023/11/27 04:21:37;;;;;;;2.95;1.60;;;1.70;79.30;;;;;;5135018;27;20188;-92
2023/11/27 04:24:06;;;;;;;4.80;1.88;;;1.70;79.80;;;;;;5134324;27;20217;-92
2023/11/27 04:26:35;;;;;;;2.95;1.70;;;1.70;80.00;;;;;;5134636;28;20190;-94
2023/11/27 04:29:04;;;;;;;5.50;1.77;;;1.80;79.30;;;;;;5135623;28;20221;-95
2023/11/27 04:31:32;;;;;;;2.60;1.25;;;1.80;78.70;;;;;;5134673;28;20188;-91
2023/11/27 04:33:59;;;;;;;2.00;0.93;;;1.80;78.20;;;;;;5134071;28;20669;-91
2023/11/27 04:36:26;;;;;;;3.30;1.52;;;1.80;77.70;;;;;;5134874;27;20236;-93
2023/11/27 04:38:53;;;;;;;3.00;1.25;;;1.80;78.00;;;;;;5134715;27;20585;-93
2023/11/27 04:41:21;;;;;;;2.58;1.30;;;1.90;77.40;;;;;;5134291;27;20642;-92
2023/11/27 04:43:48;;;;;;;2.25;1.13;;;1.90;75.90;;;;;;5134440;28;20188;-91
2023/11/27 04:46:14;;;;;;;3.33;1.50;;;1.90;75.20;;;;;;5134565;27;20257;-93
2023/11/27 04:48:41;;;;;;;3.97;1.50;;;1.90;75.00;;;;;;5134379;27;20229;-93
2023/11/27 04:51:10;;;;;;;3.15;1.10;;;1.80;75.10;;;;;;5134749;27;20269;-92
2023/11/27 04:53:37;;;;;;;3.25;1.60;;;1.70;75.00;;;;;;5138752;27;20215;-92
2023/11/27 04:56:05;;;;;;;2.70;1.30;;;1.60;74.80;;;;;;5137878;27;20219;-92
2023/11/27 04:58:34;;;;;;;2.80;1.35;;;1.60;74.80;;;;;;5138080;27;20666;-94
2023/11/27 05:01:02;;;;;;;5.90;1.83;;;1.70;75.30;;;;;;5138497;27;20211;-92
2023/11/27 05:03:29;;;;;;;5.43;3.08;;;1.70;75.90;;;;;;5138546;27;20646;-92
2023/11/27 05:05:58;;;;;;;3.47;1.38;;;1.80;76.30;;;;;;5137821;27;20646;-93
2023/11/27 05:08:25;;;;;;;2.45;1.02;;;1.80;76.40;;;;;;5137882;27;20665;-93
2023/11/27 05:10:52;;;;;;;2.50;1.33;;;1.80;76.80;;;;;;5138294;27;20207;-93
2023/11/27 05:13:19;;;;;;;2.80;1.00;;;1.80;77.30;;;;;;5137297;27;20184;-92
2023/11/27 05:15:48;;;;;;;2.45;1.05;;;1.90;77.70;;;;;;5138283;27;20309;-92
2023/11/27 05:18:15;;;;;;;2.50;1.20;;;1.90;77.90;;;;;;5138027;27;20253;-93
2023/11/27 05:20:42;;;;;;;3.30;1.23;;;1.90;78.20;;;;;;5137085;27;20184;-92
2023/11/27 05:23:09;;;;;;;2.95;1.55;;;2.00;78.00;;;;;;5137606;27;20191;-93
2023/11/27 05:25:36;;;;;;;3.55;1.35;;;1.90;77.70;;;;;;5137661;27;20196;-91
2023/11/27 05:28:04;;;;;;;2.08;1.20;;;1.80;77.90;;;;;;5137971;27;20187;-92
2023/11/27 05:30:31;;;;;;;7.10;2.00;;;1.90;78.10;;;;;;5137459;27;20200;-92
2023/11/27 05:32:59;;;;;;;3.65;1.83;;;1.90;78.00;;;;;;5137262;27;20245;-93
2023/11/27 05:35:26;;;;;;;3.15;1.50;;;1.90;77.70;;;;;;5137310;27;20266;-93
2023/11/27 05:37:53;;;;;;;2.65;1.20;;;1.90;77.60;;;;;;5137380;27;20241;-92
2023/11/27 05:40:20;;;;;;;2.80;1.35;;;1.80;77.80;;;;;;5137239;27;20246;-94
2023/11/27 05:42:48;;;;;;;6.10;2.90;;;1.80;78.10;;;;;;5137210;27;20592;-93
2023/11/27 05:45:17;;;;;;;7.70;2.47;;;1.80;78.00;;;;;;5137647;27;20191;-92
2023/11/27 05:47:44;;;;;;;5.70;2.60;;;1.90;78.00;;;;;;5137470;27;20212;-88
2023/11/27 05:50:13;;;;;;;3.47;1.95;;;1.80;77.90;;;;;;5136870;27;20227;-93
2023/11/27 05:52:40;;;;;;;3.45;2.15;;;1.80;78.30;;;;;;5137584;27;20275;-93
2023/11/27 05:55:08;;;;;;;4.35;2.40;;;1.80;78.30;;;;;;5136469;27;20276;-93
2023/11/27 05:57:35;;;;;;;5.85;1.85;;;1.80;78.40;;;;;;5137221;27;20192;-90
2023/11/27 06:00:03;;;;;;;8.75;2.25;;;1.80;78.40;;;;;;5137603;27;20192;-92
2023/11/27 06:02:30;;;;;;;4.68;2.75;;;1.90;77.80;;;;;;5137235;27;20219;-93
2023/11/27 06:04:57;;;;;;;4.60;2.75;;;1.80;77.50;;;;;;5136514;27;20188;-94
2023/11/27 06:07:25;;;;;;;4.40;2.83;;;1.70;77.70;;;;;;5136452;27;20188;-92
2023/11/27 06:09:52;;;;;;;5.80;3.15;;;1.70;78.00;;;;;;5136909;27;20200;-92
2023/11/27 06:12:23;;;;;;;4.18;2.58;;;1.70;78.30;;;;;;5136253;27;20181;-91
2023/11/27 06:14:50;;;;;;;4.88;2.05;;;1.70;78.50;;;;;;5137065;27;20253;-91
2023/11/27 06:17:17;;;;;;;4.28;2.10;;;1.70;78.50;;;;;;5136270;27;20219;-91
2023/11/27 06:19:44;;;;;;;4.82;1.70;;;1.60;78.60;;;;;;5136389;27;20691;-91
2023/11/27 06:22:11;;;;;;;3.53;2.05;;;1.60;78.80;;;;;;5136831;27;20271;-91
2023/11/27 06:24:39;;;;;;;3.28;1.45;;;1.60;79.10;;;;;;5136881;27;20188;-92
2023/11/27 06:27:07;;;;;;;5.50;3.15;;;1.60;79.20;;;;;;5134080;27;20220;-91
2023/11/27 06:29:34;;;;;;;4.50;2.40;;;1.60;79.30;;;;;;5135990;27;20595;-92
2023/11/27 06:32:01;;;;;;;3.05;2.30;;;1.50;79.30;;;;;;5135635;27;20214;-91
2023/11/27 06:34:28;;;;;;;3.72;2.78;;;1.50;79.40;;;;;;5135146;27;20758;-89
2023/11/27 06:36:55;;;;;;;4.10;2.67;;;1.50;79.40;;;;;;5134985;27;20655;-89
2023/11/27 06:39:22;;;;;;;7.05;3.42;;;1.40;79.20;;;;;;5135813;27;20555;-88
2023/11/27 06:41:51;;;;;;;7.80;3.70;;;1.40;79.40;;;;;;5135400;27;20219;-89
2023/11/27 06:44:19;;;;;;;5.00;3.00;;;1.40;79.10;;;;;;5134477;27;20188;-89
2023/11/27 06:46:46;;;;;;;5.20;3.08;;;1.30;79.10;;;;;;5134374;27;20584;-89
2023/11/27 06:49:14;;;;;;;5.25;2.70;;;1.30;79.40;;;;;;5134941;27;20692;-90
2023/11/27 06:51:42;;;;;;;4.82;2.80;;;1.30;79.60;;;;;;5134413;27;20207;-91
2023/11/27 06:54:09;;;;;;;5.55;3.10;;;1.30;79.50;;;;;;5134360;27;20215;-90
2023/11/27 06:56:36;;;;;;;5.10;2.83;;;1.20;79.60;;;;;;5134520;27;20223;-90
2023/11/27 06:59:05;;;;;;;8.43;2.45;;;1.20;79.30;;;;;;5134580;27;20673;-90
2023/11/27 07:01:32;;;;;;;4.10;2.90;;;1.20;79.30;;;;;;5134631;27;20184;-91
2023/11/27 07:04:00;;;;;;;4.90;2.90;;;1.20;79.40;;;;;;5131452;27;20220;-91
2023/11/27 07:06:26;;;;;;;7.70;4.00;;;1.30;79.30;;;;;;5132762;27;20188;-91
2023/11/27 07:08:54;;;;;;;10.00;7.00;;;1.30;79.10;;;;;;5134126;27;20232;-90
2023/11/27 07:11:22;;;;;;;8.93;4.55;;;1.40;79.10;;;;;;5134768;27;20195;-90
2023/11/27 07:13:49;;;;;;;6.05;4.70;;;1.40;78.70;;;;;;5132942;27;20192;-91
2023/11/27 07:16:32;;;;;;;7.47;4.57;;;1.40;78.40;;;;;;5131164;27;20317;-90
2023/11/27 07:18:59;;;;;;;5.50;4.20;;;1.40;78.20;;;;;;5122166;27;20188;-91
2023/11/27 07:21:27;;;;;;;5.97;4.32;;;1.40;78.10;;;;;;5133678;27;20271;-91
2023/11/27 07:23:54;;;;;;;7.85;4.65;;;1.50;77.90;;;;;;5134391;27;20245;-91
2023/11/27 07:26:24;;;;;;;8.68;4.90;;;1.50;77.70;;;;;;5133585;27;20278;-89
2023/11/27 07:28:51;;;;;;;6.55;4.05;;;1.50;77.60;;;;;;5133548;27;20191;-90
2023/11/27 07:31:18;;;;;;;10.52;5.30;;;1.60;77.60;;;;;;5132594;27;20236;-91
2023/11/27 07:33:46;;;;;;;12.07;7.45;;;1.70;78.00;;;;;;5133898;27;20687;-89
2023/11/27 07:36:13;;;;;;;12.13;7.45;;;1.80;77.70;;;;;;5132843;27;20247;-90
2023/11/27 07:38:41;;;;;;;10.00;6.35;;;2.00;77.90;;;;;;5132896;27;20191;-90
2023/11/27 07:41:08;;;;;;;8.40;5.75;;;2.30;77.20;;;;;;5134713;27;20188;-91
2023/11/27 07:43:36;;;;;;;8.07;5.07;;;2.50;76.40;;;;;;5134581;27;20604;-89
2023/11/27 07:46:05;;;;;;;6.70;4.00;;;2.90;74.90;;;;;;5134794;27;20218;-89
2023/11/27 07:48:33;;;;;;;8.30;5.03;;;3.20;72.90;;;;;;5134897;27;20191;-89
2023/11/27 07:51:04;;;;;;;7.03;4.20;;;3.30;72.00;;;;;;5134451;27;20192;-90
2023/11/27 07:53:31;;;;;;;6.68;3.67;;;3.40;70.80;;;;;;5134735;27;20219;-91
2023/11/27 07:55:59;;;;;;;7.38;4.20;;;3.40;70.40;;;;;;5134311;27;20704;-89
2023/11/27 07:58:26;;;;;;;6.45;3.20;;;3.50;69.90;;;;;;5134593;27;20192;-90
2023/11/27 08:00:53;;;;;;;5.65;2.70;;;3.70;70.10;;;;;;5134666;27;20279;-89
2023/11/27 08:03:20;;;;;;;3.63;1.83;;;4.00;69.80;;;;;;5134755;27;20192;-89
2023/11/27 08:05:47;;;;;;;3.20;1.95;;;4.20;68.20;;;;;;5134467;27;20192;-89
2023/11/27 08:08:16;;;;;;;3.20;2.05;;;4.20;67.50;;;;;;5134231;28;20207;-89
2023/11/27 08:10:44;;;;;;;4.55;2.42;;;4.30;66.80;;;;;;5134435;28;20223;-89
2023/11/27 08:13:11;;;;;;;4.50;2.40;;;4.40;66.60;;;;;;5134034;28;20274;-89
2023/11/27 08:15:38;;;;;;;4.50;2.20;;;4.50;65.90;;;;;;5134340;28;20218;-89
2023/11/27 08:18:05;;;;;;;4.25;2.28;;;4.70;64.90;;;;;;5134484;28;20191;-89
2023/11/27 08:20:38;;;;;;;3.28;2.05;;;5.00;64.30;;;;;;5134123;27;20199;-88
2023/11/27 08:23:05;;;;;;;3.13;1.88;;;5.40;63.90;;;;;;5134398;28;20583;-89
2023/11/27 08:25:33;;;;;;;4.05;2.05;;;5.70;62.80;;;;;;5134283;28;20221;-89
2023/11/27 08:28:02;;;;;;;3.80;2.22;;;6.00;61.70;;;;;;5137411;27;20223;-88
2023/11/27 08:30:32;;;;;;;4.53;2.08;;;6.40;61.10;;;;;;5138203;27;20638;-89
2023/11/27 08:33:00;;;;;;;4.93;2.05;;;6.80;59.50;;;;;;5138713;27;20542;-89
2023/11/27 08:35:33;;;;;;;5.35;3.17;;;7.10;58.80;;;;;;5138347;27;20216;-90
2023/11/27 08:38:00;;;;;;;13.10;6.78;;;7.30;56.50;;;;;;5138436;27;20176;-90
2023/11/27 08:40:27;;;;;;;5.78;3.30;;;7.40;55.00;;;;;;5138350;27;20547;-89
2023/11/27 08:42:56;;;;;;;6.15;2.90;;;7.50;54.90;;;;;;5137864;27;20711;-89
2023/11/27 08:45:23;;;;;;;36.10;22.40;;;7.50;53.00;;;;;;5137929;27;20255;-89
2023/11/27 08:47:51;;;;;;;33.78;23.10;;;7.60;54.30;;;;;;5138232;27;20520;-90
2023/11/27 08:50:18;;;;;;;5.00;3.20;;;7.90;53.40;;;;;;5138183;27;20193;-89
2023/11/27 08:52:46;;;;;;;4.15;2.10;;;8.10;52.50;;;;;;5138124;27;20188;-89
2023/11/27 08:55:18;;;;;;;2.55;1.42;;;8.10;51.20;;;;;;5137907;27;20254;-89
2023/11/27 08:57:45;;;;;;;7.38;5.10;;;8.20;51.60;;;;;;5137945;27;20261;-90
2023/11/27 09:00:18;;;;;;;3.10;1.70;;;8.40;51.70;;;;;;5137599;27;20255;-89
2023/11/27 09:02:44;;;;;;;3.92;2.10;;;8.80;50.40;;;;;;5138083;27;20176;-88
2023/11/27 09:05:11;;;;;;;4.32;2.13;;;8.90;49.50;;;;;;5137906;27;20219;-89
2023/11/27 09:07:38;;;;;;;4.15;2.00;;;8.90;48.80;;;;;;5137402;27;20224;-89
2023/11/27 09:10:06;;;;;;;6.07;2.42;;;9.10;48.60;;;;;;5137913;27;20192;-90
2023/11/27 09:12:33;;;;;;;5.28;1.83;;;9.20;47.60;;;;;;5137322;27;20642;-90
2023/11/27 09:15:00;;;;;;;3.67;2.10;;;9.20;47.30;;;;;;5135596;27;20753;-90
2023/11/27 09:17:28;;;;;;;3.20;2.10;;;9.30;48.00;;;;;;5137331;27;20195;-89
2023/11/27 09:19:56;;;;;;;3.90;2.70;;;9.40;48.00;;;;;;5137466;27;20602;-90
2023/11/27 09:22:23;;;;;;;3.70;2.42;;;9.50;47.10;;;;;;5137258;27;20195;-90
2023/11/27 09:24:50;;;;;;;3.95;2.13;;;9.50;46.20;;;;;;5137486;27;20223;-90
2023/11/27 09:27:17;;;;;;;5.50;2.83;;;9.60;46.50;;;;;;5136955;27;20668;-88
2023/11/27 09:29:44;;;;;;;5.53;2.38;;;9.70;46.60;;;;;;5137328;27;20192;-89
2023/11/27 09:32:11;;;;;;;5.13;2.92;;;9.90;47.00;;;;;;5137318;27;20290;-90
2023/11/27 09:34:40;;;;;;;4.95;1.90;;;10.10;45.60;;;;;;5137331;27;20185;-90
2023/11/27 09:37:06;;;;;;;4.97;2.40;;;10.40;44.40;;;;;;5137136;27;20231;-90
2023/11/27 09:39:34;;;;;;;3.45;2.13;;;10.50;44.90;;;;;;5137453;27;20223;-91
2023/11/27 09:42:03;;;;;;;3.17;1.67;;;10.70;43.20;;;;;;5137444;27;20226;-90
2023/11/27 09:44:30;;;;;;;2.72;1.70;;;10.80;42.20;;;;;;5136966;27;20596;-90
2023/11/27 09:46:59;;;;;;;3.70;1.73;;;10.80;42.90;;;;;;5136557;27;20220;-90
2023/11/27 09:49:28;;;;;;;4.00;1.90;;;;;;;;;;5137141;27;20271;-88
2023/11/27 09:51:58;;;;;;;3.75;1.55;;;;;;;;;;5136910;27;20668;-89
2023/11/27 09:54:27;;;;;;;4.55;1.95;;;;;;;;;;5136529;27;20192;-90
2023/11/27 09:56:55;;;;;;;3.30;1.90;;;;;;;;;;5136622;27;20649;-88
2023/11/27 09:59:23;;;;;;;4.17;1.53;;;;;;;;;;5136511;27;20418;-88
2023/11/27 10:01:50;;;;;;;2.77;1.70;;;;;;;;;;5136378;27;20508;-87
2023/11/27 10:04:17;;;;;;;3.80;1.52;;;;;;;;;;5136338;27;20958;-87
2023/11/27 10:06:48;;;;;;;3.00;2.20;;;;;;;;;;5136646;27;20196;-88
2023/11/27 10:09:18;;;;;;;5.57;2.77;;;;;;;;;;5136630;27;20418;-88
2023/11/27 10:11:50;;;;;;;3.33;2.03;;;;;;;;;;5136470;27;20833;-88
2023/11/27 10:14:19;;;;;;;4.27;1.90;;;;;;;;;;5136818;27;20418;-88
2023/11/27 10:16:46;;;;;;;3.97;2.10;;;;;;;;;;5136244;27;20568;-88
2023/11/27 10:19:19;;;;;;;2.50;1.40;;;;;;;;;;5136242;27;20551;-88
2023/11/27 10:21:46;;;;;;;3.93;1.90;;;;;;;;;;5136472;27;20463;-89
2023/11/27 10:24:14;;;;;;;3.20;1.30;;;;;;;;;;5136245;27;20869;-88
2023/11/27 10:26:44;;;;;;;4.37;1.53;;;;;;;;;;5136127;27;20781;-88
2023/11/27 10:29:14;;;;;;;4.77;1.87;;;;;;;;;;5136003;27;20900;-89
2023/11/27 10:31:45;;;;;;;3.63;1.73;;;;;;;;;;5136118;27;20434;-90
2023/11/27 10:34:13;;;;;;;4.00;1.80;;;;;;;;;;5136067;27;20414;-90
2023/11/27 10:36:40;;;;;;;4.10;1.83;;;;;;;;;;5136012;27;20519;-89
2023/11/27 10:39:14;;;;;;;4.20;2.00;;;;;;;;;;5135801;27;20714;-89
2023/11/27 10:41:45;;;;;;;3.77;1.80;;;;;;;;;;5136079;27;20476;-89
2023/11/27 10:44:13;;;;;;;3.50;1.80;;;;;;;;;;5135533;27;20482;-89
2023/11/27 10:46:41;;;;;;;3.63;2.13;;;;;;;;;;5135405;27;20457;-89
2023/11/27 10:49:08;;;;;;;5.73;2.30;;;;;;;;;;5135417;27;20638;-89
2023/11/27 10:51:37;;;;;;;6.13;1.73;;;;;;;;;;5135613;27;20494;-88
2023/11/27 10:54:04;;;;;;;3.80;1.70;;;;;;;;;;5135391;27;20462;-89
2023/11/27 10:56:33;;;;;;;2.63;1.30;;;;;;;;;;5135425;27;20248;-90
2023/11/27 10:59:05;;;;;;;2.73;1.50;;;;;;;;;;5135645;27;20188;-90
2023/11/27 11:01:34;;;;;;;4.40;1.67;;;;;;;;;;5135199;27;20450;-90
2023/11/27 11:04:09;;;;;;;2.20;1.23;;;;;;;;;;5135130;27;20426;-90
2023/11/27 11:06:38;;;;;;;7.90;2.93;;;;;;;;;;5135467;27;20432;-89
2023/11/27 11:09:07;;;;;;;3.57;1.53;;;;;;;;;;5134944;27;20438;-88
2023/11/27 11:11:35;;;;;;;4.40;1.83;;;;;;;;;;5134677;27;20441;-89
2023/11/27 11:14:04;;;;;;;3.43;1.70;;;;;;;;;;5135285;27;20430;-89
2023/11/27 11:16:33;;;;;;;2.97;1.70;;;;;;;;;;5134813;27;20836;-90
2023/11/27 11:19:06;;;;;;;9.50;1.90;;;;;;;;;;5135198;27;20452;-89
2023/11/27 11:21:41;;;;;;;2.97;1.67;;;;;;;;;;5135443;27;20422;-90
2023/11/27 11:24:11;;;;;;;3.17;1.30;;;;;;;;;;5135193;27;20811;-89
2023/11/27 11:26:44;;;;;;;3.37;1.60;;;;;;;;;;5134655;27;20485;-88
2023/11/27 11:29:14;;;;;;;4.00;2.00;;;;;;;;;;5135414;27;20825;-89
2023/11/27 11:31:45;;;;;;;2.57;1.13;;;11.00;42.40;;;;;;5134459;27;20483;-89
2023/11/27 11:34:22;;;;;;;3.13;1.57;;;;;;;;;;5134931;27;20438;-89
2023/11/27 11:36:53;;;;;;;7.20;1.70;;;;;;;;;;5134800;27;20951;-89
2023/11/27 11:39:21;;;;;;;3.77;1.80;;;;;;;;;;5135007;27;20773;-89
2023/11/27 11:41:52;;;;;;;5.00;2.03;;;;;;;;;;5134851;27;20829;-89
2023/11/27 11:44:20;;;;;;;3.17;1.37;;;;;;;;;;5135069;27;20469;-89
2023/11/27 11:46:48;;;;;;;3.13;1.53;;;;;;;;;;5134655;27;20465;-89
2023/11/27 11:49:19;;;;;;;2.83;1.67;;;;;;;;;;5134329;27;20939;-89
2023/11/27 11:52:03;;;;;;;4.83;2.47;;;;;;;;;;5134942;27;20417;-90
2023/11/27 11:54:38;;;;;;;3.80;2.07;;;;;;;;;;5132167;27;20475;-89
2023/11/27 11:57:16;;;;;;;2.93;1.77;;;;;;;;;;5133925;27;20468;-90
2023/11/27 11:59:47;;;;;;;4.23;1.37;;;;;;;;;;5134165;27;20429;-90
2023/11/27 12:02:18;;;;;;;3.70;1.43;;;;;;;;;;5133769;27;20513;-89
2023/11/27 12:04:46;;;;;;;3.07;1.80;;;;;;;;;;5134421;27;20426;-92
2023/11/27 12:07:13;;;;;;;2.87;1.20;;;;;;;;;;5133721;27;20465;-90
2023/11/27 12:09:42;;;;;;;4.93;1.73;;;;;;;;;;5133652;28;20530;-91
2023/11/27 12:12:10;;;;;;;5.80;3.40;;;;;;;;;;5132733;28;20936;-91
2023/11/27 12:14:38;;;;;;;4.93;2.50;;;;;;;;;;5132869;28;20467;-91
2023/11/27 12:17:08;;;;;;;7.13;3.77;;;;;;;;;;5133499;28;20469;-90
2023/11/27 12:19:35;;;;;;;5.40;2.83;;;;;;;;;;5130047;28;20425;-89
2023/11/27 12:22:04;;;;;;;3.70;2.43;;;;;;;;;;5133740;27;20426;-90
2023/11/27 12:24:31;;;;;;;3.97;2.30;;;;;;;;;;5132390;28;20525;-89
2023/11/27 12:26:59;;;;;;;7.70;5.03;;;;;;;;;;5133067;27;20491;-91
2023/11/27 12:29:28;;;;;;;3.13;1.63;;;;;;;;;;5131806;28;20840;-91
2023/11/27 12:31:55;;;;;;;12.67;6.50;;;;;;;;;;5146953;27;20436;-93
2023/11/27 12:34:25;;;;;;;10.53;5.13;;;;;;;;;;5122411;28;20446;-92
2023/11/27 12:36:52;;;;;;;8.00;3.07;;;;;;;;;;5133305;28;20474;-92
2023/11/27 12:39:25;;;;;;;20.93;9.60;;;;;;;;;;5133015;28;20904;-92
2023/11/27 12:42:00;;;;;;;4.17;2.37;;;;;;;;;;5134827;28;20425;-93
2023/11/27 12:44:30;;;;;;;3.45;1.85;;;;;;;;;;5134730;28;20508;-92
2023/11/27 12:46:59;;;;;;;4.70;2.40;;;;;;;;;;5133901;28;20255;-93
2023/11/27 12:49:28;;;;;;;2.85;1.70;;;;;;;;;;5131832;28;20665;-92
2023/11/27 12:51:58;;;;;;;4.40;2.42;;;;;;;;;;5132509;28;20203;-88
2023/11/27 12:54:31;;;;;;;4.80;2.20;;;;;;;;;;5133415;28;20215;-92
2023/11/27 12:57:00;;;;;;;6.20;3.20;;;;;;;;;;5134354;27;20560;-92
2023/11/27 12:59:28;;;;;;;4.90;1.70;;;;;;;;;;5133672;27;20579;-92
2023/11/27 13:01:57;;;;;;;3.10;1.60;;;;;;;;;;5133720;27;20200;-92
2023/11/27 13:04:29;;;;;;;4.30;1.58;;;;;;;;;;5128431;28;20211;-92
2023/11/27 13:06:58;;;;;;;3.75;1.90;;;;;;;;;;5133492;28;20181;-93
2023/11/27 13:09:26;;;;;;;3.50;2.15;;;;;;;;;;5133584;28;20244;-92
2023/11/27 13:11:53;;;;;;;4.90;2.53;;;;;;;;;;5132520;27;20188;-92
2023/11/27 13:14:21;;;;;;;3.10;1.75;;;;;;;;;;5137506;27;20189;-92
2023/11/27 13:16:48;;;;;;;3.75;2.20;;;;;;;;;;5137349;27;20295;-93
2023/11/27 13:19:16;;;;;;;3.83;2.10;;;;;;;;;;5138168;27;20191;-92
2023/11/27 13:21:43;;;;;;;3.88;2.10;;;;;;;;;;5138131;27;20517;-92
2023/11/27 13:24:13;;;;;;;2.97;1.98;;;;;;;;;;5138082;27;20192;-93
2023/11/27 13:26:41;;;;;;;2.90;1.50;;;;;;;;;;5137703;27;20199;-92